Time;durP1;ratioP1;P1;durP2;ratioP2;P2;SDS_P1;SDS_P2;PMS_P1;PMS_P2;Temp;Humidity;BMP_temperature;BMP_pressure;BME280_temperature;BME280_humidity;BME280_pressure;Samples;Min_cycle;Max_cycle;Signal;HPM_P1;HPM_P2
2023/01/03 00:02:21;;;;;;;3.00;2.03;;;10.30;99.90;;;;;;6087207;23;20420;-62
2023/01/03 00:04:50;;;;;;;3.00;1.40;;;10.30;99.90;;;;;;6089771;23;20408;-64
2023/01/03 00:07:32;;;;;;;2.50;1.60;;;10.20;99.90;;;;;;6092634;23;20437;-62
2023/01/03 00:09:59;;;;;;;3.53;1.50;;;10.20;99.90;;;;;;6092893;23;20448;-61
2023/01/03 00:12:26;;;;;;;6.77;1.73;;;10.20;99.90;;;;;;6093148;23;20463;-60
2023/01/03 00:14:54;;;;;;;2.30;1.43;;;10.10;99.90;;;;;;6093498;23;20418;-60
2023/01/03 00:17:20;;;;;;;2.13;1.83;;;10.10;99.90;;;;;;6088324;23;20444;-61
2023/01/03 00:19:49;;;;;;;2.00;1.80;;;10.20;99.90;;;;;;6094835;23;20452;-59
2023/01/03 00:22:17;;;;;;;2.80;1.67;;;10.20;99.90;;;;;;6090796;23;20396;-54
2023/01/03 00:24:45;;;;;;;3.03;1.63;;;10.10;99.90;;;;;;6094216;23;20451;-60
2023/01/03 00:27:12;;;;;;;2.50;1.83;;;10.10;99.90;;;;;;6091285;23;20417;-62
2023/01/03 00:29:39;;;;;;;2.30;1.40;;;10.10;99.90;;;;;;6095274;23;20432;-57
2023/01/03 00:32:07;;;;;;;6.67;1.77;;;10.10;99.90;;;;;;6091655;23;20433;-61
2023/01/03 00:34:34;;;;;;;3.00;1.80;;;10.10;99.90;;;;;;6096182;23;20428;-61
2023/01/03 00:37:02;;;;;;;4.30;1.43;;;10.10;99.90;;;;;;6095867;23;20408;-62
2023/01/03 00:39:29;;;;;;;5.43;1.50;;;10.10;99.90;;;;;;6092384;23;20483;-62
2023/01/03 00:41:56;;;;;;;2.57;2.00;;;10.10;99.90;;;;;;6096191;23;20456;-56
2023/01/03 00:44:23;;;;;;;4.33;1.60;;;10.20;99.90;;;;;;6095115;23;20998;-58
2023/01/03 00:46:50;;;;;;;3.83;1.67;;;10.10;99.90;;;;;;6087662;23;20404;-61
2023/01/03 00:49:17;;;;;;;3.90;1.30;;;10.10;99.90;;;;;;6095574;23;20428;-61
2023/01/03 00:51:44;;;;;;;2.43;1.40;;;10.10;99.90;;;;;;6096524;23;20399;-61
2023/01/03 00:54:14;;;;;;;2.30;1.67;;;10.10;99.90;;;;;;6095652;23;20416;-61
2023/01/03 00:56:43;;;;;;;3.13;1.53;;;10.10;99.90;;;;;;6090514;23;20381;-58
2023/01/03 00:59:14;;;;;;;5.97;2.20;;;10.00;99.90;;;;;;6090662;23;20400;-60
2023/01/03 01:01:43;;;;;;;3.13;2.40;;;10.00;99.90;;;;;;6094929;23;20417;-59
2023/01/03 01:04:12;;;;;;;3.70;1.57;;;10.00;99.90;;;;;;6094759;23;20396;-62
2023/01/03 01:06:44;;;;;;;6.13;1.30;;;10.00;99.90;;;;;;6093300;23;20393;-59
2023/01/03 01:09:14;;;;;;;1.87;1.40;;;10.00;99.90;;;;;;6093013;23;20388;-60
2023/01/03 01:11:42;;;;;;;1.50;1.40;;;10.00;99.90;;;;;;6090262;23;20389;-59
2023/01/03 01:14:19;;;;;;;1.87;1.10;;;10.00;99.90;;;;;;6094654;23;20411;-61
2023/01/03 01:16:47;;;;;;;6.00;1.67;;;9.90;99.90;;;;;;6095517;23;20400;-61
2023/01/03 01:19:14;;;;;;;7.50;2.00;;;9.80;99.90;;;;;;6094449;23;20408;-61
2023/01/03 01:21:43;;;;;;;4.87;1.80;;;9.80;99.90;;;;;;6094632;23;20812;-55
2023/01/03 01:24:12;;;;;;;2.23;1.60;;;9.70;99.90;;;;;;6094090;23;20396;-64
2023/01/03 01:26:39;;;;;;;2.43;1.73;;;9.60;99.90;;;;;;6094413;23;20401;-61
2023/01/03 01:29:06;;;;;;;2.33;1.50;;;9.60;99.90;;;;;;6091007;23;20503;-61
2023/01/03 01:31:36;;;;;;;2.53;1.67;;;9.60;99.90;;;;;;6094255;23;20409;-62
2023/01/03 01:34:03;;;;;;;3.87;1.57;;;9.50;99.90;;;;;;6094868;23;20377;-62
2023/01/03 01:36:36;;;;;;;2.00;1.23;;;9.50;99.90;;;;;;6093525;23;20440;-60
2023/01/03 01:39:05;;;;;;;1.70;1.23;;;9.40;99.90;;;;;;6095312;23;20393;-58
2023/01/03 01:44:41;;;;;;;5.33;1.30;;;9.20;99.90;;;;;;6094981;23;20400;-61
2023/01/03 01:47:12;;;;;;;1.37;1.10;;;9.20;99.90;;;;;;6093725;23;20463;-58
2023/01/03 01:49:39;;;;;;;6.13;1.27;;;9.10;99.90;;;;;;6091253;23;20408;-59
2023/01/03 01:52:07;;;;;;;1.30;1.00;;;9.10;99.90;;;;;;6093923;23;20441;-60
2023/01/03 01:54:40;;;;;;;3.83;1.30;;;9.10;99.90;;;;;;6093380;23;20398;-60
2023/01/03 01:57:11;;;;;;;2.73;1.23;;;9.10;99.90;;;;;;6091845;23;20404;-55
2023/01/03 01:59:38;;;;;;;1.60;1.10;;;9.10;99.90;;;;;;6092450;23;20397;-57
2023/01/03 02:02:08;;;;;;;1.63;1.47;;;9.00;99.90;;;;;;6092795;23;20445;-58
2023/01/03 02:04:38;;;;;;;2.80;1.33;;;9.00;99.90;;;;;;6092514;23;20455;-61
2023/01/03 02:07:06;;;;;;;2.47;1.20;;;9.00;99.90;;;;;;6093378;23;20429;-61
2023/01/03 02:09:34;;;;;;;1.77;1.50;;;9.00;99.90;;;;;;6091919;23;20404;-62
2023/01/03 02:15:06;;;;;;;4.70;1.30;;;8.90;99.90;;;;;;6081956;23;20448;-59
2023/01/03 02:17:43;;;;;;;1.53;1.10;;;8.90;99.90;;;;;;6093522;23;20431;-61
2023/01/03 02:20:33;;;;;;;1.63;0.80;;;8.90;99.90;;;;;;6094951;23;20397;-57
2023/01/03 02:23:39;;;;;;;1.33;0.87;;;8.90;99.90;;;;;;6094322;23;20420;-59
2023/01/03 02:26:44;;;;;;;1.30;1.00;;;8.80;99.90;;;;;;6086097;23;20440;-59
2023/01/03 02:30:04;;;;;;;1.67;1.10;;;8.80;99.90;;;;;;6094396;23;20412;-60
2023/01/03 02:32:42;;;;;;;7.27;1.10;;;8.70;99.90;;;;;;6036142;23;20426;-59
2023/01/03 02:35:17;;;;;;;3.60;1.60;;;8.60;99.90;;;;;;6094633;23;20433;-60
2023/01/03 02:37:53;;;;;;;2.80;1.03;;;8.70;99.90;;;;;;6094621;23;20440;-60
2023/01/03 02:40:29;;;;;;;2.43;0.87;;;8.60;99.90;;;;;;6094387;23;20392;-59
2023/01/03 02:43:04;;;;;;;1.30;1.10;;;8.60;99.90;;;;;;6094748;23;20404;-57
2023/01/03 02:45:47;;;;;;;1.70;1.40;;;8.60;99.90;;;;;;6094521;23;20376;-59
2023/01/03 02:48:28;;;;;;;6.23;1.70;;;8.60;99.90;;;;;;6095561;23;20373;-60
2023/01/03 02:50:59;;;;;;;2.93;1.27;;;8.60;99.90;;;;;;6094661;23;20421;-59
2023/01/03 02:53:32;;;;;;;4.30;1.30;;;8.50;99.90;;;;;;6094745;23;20414;-63
2023/01/03 02:56:07;;;;;;;2.33;1.20;;;8.40;99.90;;;;;;6094890;23;20401;-59
2023/01/03 02:58:37;;;;;;;4.13;1.30;;;8.40;99.90;;;;;;6094811;23;20396;-59
2023/01/03 03:01:08;;;;;;;1.83;1.03;;;8.40;99.90;;;;;;6094573;23;20429;-60
2023/01/03 03:03:48;;;;;;;3.23;1.10;;;8.40;99.90;;;;;;6094848;23;20377;-60
2023/01/03 03:06:21;;;;;;;3.13;1.80;;;8.40;99.90;;;;;;6093673;23;20404;-61
2023/01/03 03:08:50;;;;;;;1.23;1.07;;;8.30;99.90;;;;;;6093568;23;20405;-61
2023/01/03 03:14:08;;;;;;;4.30;1.70;;;8.30;99.90;;;;;;6093037;23;20377;-60
2023/01/03 03:16:47;;;;;;;2.33;1.27;;;8.20;99.90;;;;;;6092729;23;20393;-58
2023/01/03 03:24:54;;;;;;;2.10;1.20;;;8.20;99.90;;;;;;6092017;23;20399;-61
2023/01/03 03:30:12;;;;;;;3.13;1.40;;;8.10;99.90;;;;;;6062285;23;20389;-61
2023/01/03 03:32:43;;;;;;;3.37;0.93;;;8.10;99.90;;;;;;6091953;23;20432;-61
2023/01/03 03:35:15;;;;;;;1.30;1.03;;;8.20;99.90;;;;;;6092908;23;20396;-59
2023/01/03 03:37:48;;;;;;;8.10;1.20;;;8.10;99.90;;;;;;6086858;23;20432;-63
2023/01/03 03:46:07;;;;;;;1.90;1.33;;;8.00;99.90;;;;;;6093025;23;20379;-59
2023/01/03 03:51:24;;;;;;;6.20;1.80;;;8.00;99.90;;;;;;6086008;23;20426;-61
2023/01/03 03:53:53;;;;;;;4.57;1.23;;;7.90;99.90;;;;;;6085183;23;20424;-59
2023/01/03 03:56:27;;;;;;;3.23;1.27;;;7.90;99.90;;;;;;6095101;23;20412;-61
2023/01/03 03:58:58;;;;;;;2.70;1.17;;;7.90;99.90;;;;;;6095296;23;20417;-61
2023/01/03 04:01:26;;;;;;;1.33;1.20;;;7.90;99.90;;;;;;6094955;23;20418;-61
2023/01/03 04:03:59;;;;;;;1.50;1.10;;;7.90;99.90;;;;;;6094875;23;20415;-60
2023/01/03 04:06:30;;;;;;;4.20;1.50;;;7.90;99.90;;;;;;6082067;23;20412;-61
2023/01/03 04:08:58;;;;;;;1.63;1.20;;;7.90;99.90;;;;;;6094476;23;20432;-61
2023/01/03 04:11:25;;;;;;;3.10;1.50;;;7.90;99.90;;;;;;6095368;23;20400;-60
2023/01/03 04:13:52;;;;;;;4.13;1.57;;;7.80;99.90;;;;;;6094967;23;20408;-60
2023/01/03 04:16:18;;;;;;;7.33;2.43;;;7.80;99.90;;;;;;6087100;23;20411;-59
2023/01/03 04:18:45;;;;;;;2.50;1.47;;;7.70;99.90;;;;;;6090617;23;20420;-59
2023/01/03 04:21:17;;;;;;;3.50;1.40;;;7.70;99.90;;;;;;6095122;23;20435;-60
2023/01/03 04:23:45;;;;;;;2.47;1.40;;;7.70;99.90;;;;;;6094970;23;20444;-59
2023/01/03 04:26:12;;;;;;;2.53;1.37;;;7.70;99.90;;;;;;6094667;23;20403;-60
2023/01/03 04:28:39;;;;;;;1.10;1.00;;;7.70;99.90;;;;;;6093892;23;20439;-61
2023/01/03 04:31:06;;;;;;;2.03;1.37;;;7.70;99.90;;;;;;6093498;23;20411;-57
2023/01/03 04:33:33;;;;;;;1.97;1.33;;;7.70;99.90;;;;;;6093820;23;20432;-60
2023/01/03 04:36:06;;;;;;;2.93;1.50;;;7.60;99.90;;;;;;6093687;23;20419;-56
2023/01/03 04:38:35;;;;;;;1.73;0.80;;;7.50;99.90;;;;;;6093503;23;20499;-61
2023/01/03 04:41:09;;;;;;;1.83;1.13;;;7.40;99.90;;;;;;6094011;23;20448;-61
2023/01/03 04:46:21;;;;;;;1.60;1.20;;;7.30;99.90;;;;;;6087115;23;20446;-55
2023/01/03 04:48:48;;;;;;;3.47;1.90;;;7.30;99.90;;;;;;6094502;23;20459;-61
2023/01/03 04:51:15;;;;;;;4.50;1.40;;;7.20;99.90;;;;;;6094707;23;20389;-61
2023/01/03 04:53:45;;;;;;;2.47;1.33;;;7.20;99.90;;;;;;6094361;23;20439;-59
2023/01/03 04:56:12;;;;;;;1.30;0.90;;;7.20;99.90;;;;;;6094077;23;20395;-61
2023/01/03 04:58:46;;;;;;;2.20;1.43;;;7.20;99.90;;;;;;6083214;23;20428;-61
2023/01/03 05:01:12;;;;;;;3.23;1.30;;;7.20;99.90;;;;;;6091604;23;20464;-58
2023/01/03 05:03:39;;;;;;;4.10;1.10;;;7.20;99.90;;;;;;6093292;23;20424;-59
2023/01/03 05:06:08;;;;;;;1.53;1.10;;;7.20;99.90;;;;;;6093384;23;20421;-59
2023/01/03 05:08:35;;;;;;;2.33;1.40;;;7.10;99.90;;;;;;6093491;23;20744;-59
2023/01/03 05:11:04;;;;;;;3.83;1.27;;;7.10;99.90;;;;;;6093484;23;20755;-60
2023/01/03 05:13:31;;;;;;;1.67;1.40;;;7.20;99.90;;;;;;6093208;23;20409;-59
2023/01/03 05:16:04;;;;;;;2.43;2.17;;;7.20;99.90;;;;;;6092675;23;20744;-60
2023/01/03 05:18:31;;;;;;;3.80;1.67;;;7.10;99.90;;;;;;6093160;23;20445;-58
2023/01/03 05:26:41;;;;;;;1.57;1.47;;;7.00;99.90;;;;;;6082496;23;20425;-59
2023/01/03 05:29:15;;;;;;;6.23;2.17;;;7.00;99.90;;;;;;6092492;23;20440;-60
2023/01/03 05:31:41;;;;;;;3.10;1.60;;;7.00;99.90;;;;;;6093959;23;20377;-58
2023/01/03 05:34:08;;;;;;;2.47;1.83;;;7.00;99.90;;;;;;6094118;23;20425;-57
2023/01/03 05:36:35;;;;;;;2.07;1.37;;;7.00;99.90;;;;;;6094162;23;20384;-59
2023/01/03 05:39:02;;;;;;;5.37;2.00;;;7.00;99.90;;;;;;6093801;23;20411;-60
2023/01/03 05:44:20;;;;;;;3.23;1.73;;;7.00;99.90;;;;;;6064009;23;20419;-62
2023/01/03 05:46:47;;;;;;;2.00;1.33;;;6.90;99.90;;;;;;6094289;23;20369;-60
2023/01/03 05:49:14;;;;;;;1.80;1.60;;;6.90;99.90;;;;;;6093316;23;20443;-63
2023/01/03 05:51:41;;;;;;;4.40;2.47;;;6.90;99.90;;;;;;6093807;23;20402;-60
2023/01/03 05:54:09;;;;;;;3.60;2.67;;;6.90;99.90;;;;;;6092847;23;20411;-60
2023/01/03 05:56:36;;;;;;;3.13;1.73;;;6.90;99.90;;;;;;6093408;23;20408;-60
2023/01/03 05:59:06;;;;;;;2.87;1.40;;;6.90;99.90;;;;;;6093269;23;20401;-59
2023/01/03 06:01:35;;;;;;;4.27;1.77;;;6.90;99.90;;;;;;6092671;23;20440;-60
2023/01/03 06:04:02;;;;;;;3.80;1.47;;;6.80;99.90;;;;;;6093181;23;20429;-59
2023/01/03 06:06:31;;;;;;;6.80;1.33;;;6.70;99.90;;;;;;6093019;23;20436;-59
2023/01/03 06:08:59;;;;;;;3.87;1.90;;;6.70;99.90;;;;;;6093840;23;20511;-59
2023/01/03 06:11:26;;;;;;;2.10;1.57;;;6.70;99.90;;;;;;6092940;23;20670;-58
2023/01/03 06:13:53;;;;;;;3.60;1.80;;;6.70;99.90;;;;;;6093641;23;20428;-59
2023/01/03 06:19:07;;;;;;;9.33;1.93;;;6.70;99.90;;;;;;6093084;23;20380;-60
2023/01/03 06:21:35;;;;;;;8.40;1.83;;;6.70;99.90;;;;;;6092831;23;20437;-56
2023/01/03 06:24:01;;;;;;;1.33;1.10;;;6.60;99.90;;;;;;6092627;23;20445;-61
2023/01/03 06:26:29;;;;;;;1.50;1.30;;;6.60;99.90;;;;;;6093317;23;20429;-58
2023/01/03 06:28:56;;;;;;;5.53;1.60;;;6.60;99.90;;;;;;6092831;23;20404;-59
2023/01/03 06:31:26;;;;;;;1.67;1.57;;;6.60;99.90;;;;;;6092716;23;20439;-60
2023/01/03 06:33:52;;;;;;;8.90;1.77;;;6.60;99.90;;;;;;6093609;23;20399;-59
2023/01/03 06:36:22;;;;;;;3.20;1.83;;;6.50;99.90;;;;;;6092695;23;20401;-60
2023/01/03 06:38:51;;;;;;;10.20;1.30;;;6.50;99.90;;;;;;6093138;23;20426;-62
2023/01/03 06:41:18;;;;;;;8.50;1.67;;;6.60;99.90;;;;;;6092058;23;20492;-61
2023/01/03 06:43:47;;;;;;;1.80;1.57;;;6.50;99.90;;;;;;6092572;23;20384;-60
2023/01/03 06:54:36;;;;;;;5.17;2.10;;;6.50;99.90;;;;;;6093069;23;20507;-58
2023/01/03 06:57:04;;;;;;;3.13;1.73;;;6.60;99.90;;;;;;6093032;23;20392;-61
2023/01/03 06:59:31;;;;;;;4.60;2.67;;;6.60;99.90;;;;;;6092554;23;20404;-60
2023/01/03 07:02:01;;;;;;;3.33;1.90;;;6.60;99.90;;;;;;6092856;23;20442;-58
2023/01/03 07:04:29;;;;;;;3.43;1.57;;;6.60;99.90;;;;;;6092514;23;20448;-59
2023/01/03 07:06:57;;;;;;;9.13;3.73;;;6.50;99.90;;;;;;6092587;23;20440;-60
2023/01/03 07:09:24;;;;;;;5.87;2.63;;;6.50;99.90;;;;;;6092666;23;20392;-59
2023/01/03 07:11:56;;;;;;;3.27;2.00;;;6.40;99.90;;;;;;6092986;23;20431;-60
2023/01/03 07:14:22;;;;;;;4.63;2.40;;;6.40;99.90;;;;;;6093374;23;20393;-59
2023/01/03 07:16:52;;;;;;;2.60;2.40;;;6.40;99.90;;;;;;6093746;23;20427;-64
2023/01/03 07:19:22;;;;;;;4.47;2.53;;;6.40;99.90;;;;;;6093703;23;20412;-60
2023/01/03 07:21:49;;;;;;;2.30;1.67;;;6.40;99.90;;;;;;6080775;23;20436;-60
2023/01/03 07:24:22;;;;;;;3.40;1.80;;;6.40;99.90;;;;;;6093236;23;20428;-60
2023/01/03 07:26:48;;;;;;;2.60;1.77;;;6.40;99.90;;;;;;6093435;23;20439;-59
2023/01/03 07:29:17;;;;;;;7.00;2.43;;;6.50;99.90;;;;;;6092870;23;20391;-60
2023/01/03 07:31:44;;;;;;;6.50;2.67;;;6.50;99.90;;;;;;6092106;23;20456;-58
2023/01/03 07:34:11;;;;;;;7.90;1.90;;;6.40;99.90;;;;;;6091291;23;20417;-58
2023/01/03 07:36:38;;;;;;;2.40;2.17;;;6.40;99.90;;;;;;6091360;23;20428;-57
2023/01/03 07:39:05;;;;;;;2.63;2.43;;;6.40;99.90;;;;;;6092108;23;20405;-57
2023/01/03 07:44:18;;;;;;;7.10;1.90;;;6.40;99.90;;;;;;6092238;23;20378;-61
2023/01/03 07:46:45;;;;;;;3.00;2.30;;;6.30;99.90;;;;;;6092251;23;20424;-59
2023/01/03 07:49:13;;;;;;;5.17;2.00;;;6.30;99.90;;;;;;6091762;23;20420;-56
2023/01/03 07:51:42;;;;;;;5.97;2.10;;;6.30;99.90;;;;;;6091450;23;20436;-59
2023/01/03 07:54:09;;;;;;;3.40;2.23;;;6.30;99.90;;;;;;6091659;23;20405;-58
2023/01/03 07:56:38;;;;;;;5.10;2.13;;;6.30;99.90;;;;;;6092220;23;20452;-59
2023/01/03 07:59:04;;;;;;;7.60;2.37;;;6.40;99.90;;;;;;6092045;23;20436;-57
2023/01/03 08:01:33;;;;;;;4.40;2.20;;;6.30;99.90;;;;;;6091986;23;20404;-57
2023/01/03 08:04:00;;;;;;;3.70;2.30;;;6.40;99.90;;;;;;6092688;23;20448;-60
2023/01/03 08:06:27;;;;;;;3.77;2.30;;;6.40;99.90;;;;;;6081774;23;20423;-57
2023/01/03 08:14:24;;;;;;;7.37;2.27;;;6.50;99.90;;;;;;6081396;23;20412;-57
2023/01/03 08:16:51;;;;;;;4.03;2.00;;;6.50;99.90;;;;;;6091806;23;20409;-55
2023/01/03 08:19:18;;;;;;;2.50;1.93;;;6.50;99.90;;;;;;6092129;23;20396;-56
2023/01/03 08:21:45;;;;;;;2.93;2.40;;;6.50;99.90;;;;;;6092004;23;20408;-60
2023/01/03 08:24:12;;;;;;;4.23;1.77;;;6.50;99.90;;;;;;6092939;23;20413;-63
2023/01/03 08:26:42;;;;;;;3.40;2.00;;;6.60;99.90;;;;;;6089505;23;20405;-56
2023/01/03 08:29:09;;;;;;;3.20;2.17;;;6.60;99.90;;;;;;6093521;23;20472;-59
2023/01/03 08:31:39;;;;;;;4.03;2.23;;;6.60;99.90;;;;;;6079372;23;20404;-59
2023/01/03 08:34:10;;;;;;;8.83;2.57;;;6.60;99.90;;;;;;6082070;23;20452;-57
2023/01/03 08:36:43;;;;;;;3.17;2.23;;;6.60;99.90;;;;;;6092808;23;20377;-58
2023/01/03 08:39:14;;;;;;;3.13;1.83;;;6.70;99.90;;;;;;6087909;23;20400;-55
2023/01/03 08:41:46;;;;;;;3.90;1.80;;;6.70;99.90;;;;;;6087427;23;20384;-61
2023/01/03 08:44:14;;;;;;;2.67;2.17;;;6.70;99.90;;;;;;6079506;23;20419;-57
2023/01/03 08:46:45;;;;;;;10.80;3.00;;;6.80;99.90;;;;;;6091792;23;20416;-57
2023/01/03 08:49:13;;;;;;;14.00;3.13;;;6.80;99.90;;;;;;6081506;23;20432;-59
2023/01/03 08:51:40;;;;;;;8.10;2.77;;;6.80;99.90;;;;;;6087575;23;20408;-57
2023/01/03 08:54:07;;;;;;;2.43;2.20;;;6.80;99.90;;;;;;6082459;23;20456;-59
2023/01/03 08:56:34;;;;;;;3.80;2.33;;;6.90;99.90;;;;;;6090365;23;20397;-61
2023/01/03 08:59:02;;;;;;;4.23;2.07;;;6.90;99.90;;;;;;6092317;23;20492;-62
2023/01/03 09:01:29;;;;;;;5.70;2.50;;;6.90;99.90;;;;;;6092609;23;20389;-58
2023/01/03 09:03:56;;;;;;;10.90;3.10;;;6.90;99.90;;;;;;6094289;23;20452;-59
2023/01/03 09:06:24;;;;;;;7.20;2.80;;;6.90;99.90;;;;;;6094302;23;20388;-53
2023/01/03 09:08:50;;;;;;;3.30;2.00;;;7.00;99.90;;;;;;6087479;23;20432;-58
2023/01/03 09:11:19;;;;;;;5.20;2.40;;;7.00;99.90;;;;;;6094114;23;20412;-60
2023/01/03 09:13:46;;;;;;;3.43;2.50;;;7.00;99.90;;;;;;6093230;23;20408;-58
2023/01/03 09:16:15;;;;;;;2.57;1.90;;;7.00;99.90;;;;;;6088337;23;20415;-56
2023/01/03 09:18:42;;;;;;;12.10;2.53;;;7.00;99.90;;;;;;6093408;23;20436;-62
2023/01/03 09:21:09;;;;;;;7.33;2.20;;;7.10;99.90;;;;;;6094068;23;20412;-57
2023/01/03 09:23:36;;;;;;;5.63;2.00;;;7.10;99.90;;;;;;6093309;23;20435;-60
2023/01/03 09:26:04;;;;;;;6.20;2.00;;;7.10;99.90;;;;;;6093374;23;20400;-59
2023/01/03 09:28:31;;;;;;;3.40;1.67;;;7.20;99.90;;;;;;6089333;23;20895;-61
2023/01/03 09:30:58;;;;;;;3.80;2.23;;;7.20;99.90;;;;;;6093722;23;20396;-57
2023/01/03 09:33:27;;;;;;;4.27;1.60;;;7.20;99.90;;;;;;6094397;23;20433;-53
2023/01/03 09:35:56;;;;;;;4.20;1.47;;;7.20;99.90;;;;;;6094217;23;20400;-55
2023/01/03 09:38:23;;;;;;;2.63;1.87;;;7.20;99.90;;;;;;6093511;23;20432;-59
2023/01/03 09:40:59;;;;;;;1.77;1.57;;;7.20;99.90;;;;;;6092741;23;20383;-59
2023/01/03 09:43:39;;;;;;;2.50;1.73;;;7.30;99.90;;;;;;6093460;23;20444;-57
2023/01/03 09:46:15;;;;;;;2.90;1.90;;;7.30;99.90;;;;;;6093166;23;20750;-58
2023/01/03 09:48:43;;;;;;;4.37;2.10;;;7.40;99.90;;;;;;6091226;23;20412;-58
2023/01/03 10:06:07;;;;;;;5.23;1.70;;;7.80;99.90;;;;;;6094435;23;20433;-57
2023/01/03 10:08:45;;;;;;;2.70;1.50;;;7.70;99.90;;;;;;6094166;23;20413;-58
2023/01/03 10:11:21;;;;;;;3.33;2.13;;;7.70;99.90;;;;;;6094437;23;20384;-55
2023/01/03 10:14:06;;;;;;;3.73;2.50;;;7.80;99.90;;;;;;6093426;23;20388;-58
2023/01/03 10:16:46;;;;;;;2.03;1.43;;;8.00;99.90;;;;;;6092796;23;20436;-53
2023/01/03 10:19:43;;;;;;;5.70;2.57;;;8.10;99.90;;;;;;6092359;23;20464;-55
2023/01/03 10:22:14;;;;;;;6.57;2.10;;;8.10;99.90;;;;;;6092389;23;20421;-52
2023/01/03 10:24:45;;;;;;;5.00;2.27;;;8.20;99.90;;;;;;6093397;23;20436;-52
2023/01/03 10:27:18;;;;;;;3.03;1.83;;;8.20;99.90;;;;;;6093558;23;20384;-55
2023/01/03 10:29:46;;;;;;;2.00;1.43;;;8.30;99.90;;;;;;6092896;23;20443;-55
2023/01/03 10:32:26;;;;;;;5.70;2.07;;;8.90;99.90;;;;;;6092767;23;20408;-54
2023/01/03 10:35:17;;;;;;;6.60;2.37;;;9.10;99.90;;;;;;6091616;23;20420;-59
2023/01/03 10:37:45;;;;;;;2.80;1.20;;;9.20;99.90;;;;;;6091874;23;20392;-57
2023/01/03 10:40:14;;;;;;;12.00;2.53;;;9.00;99.90;;;;;;6091918;23;20444;-52
2023/01/03 10:42:42;;;;;;;5.53;2.40;;;8.70;99.90;;;;;;6092238;23;20448;-58
2023/01/03 10:45:14;;;;;;;4.00;2.20;;;8.60;99.90;;;;;;6092059;23;20570;-54
2023/01/03 10:47:42;;;;;;;6.60;2.83;;;8.40;99.90;;;;;;6091651;23;20393;-55
2023/01/03 10:50:20;;;;;;;10.40;2.50;;;8.40;99.90;;;;;;6091472;23;20416;-56
2023/01/03 10:52:56;;;;;;;2.93;2.17;;;8.40;99.90;;;;;;6091583;23;20385;-56
2023/01/03 10:55:25;;;;;;;4.83;1.90;;;8.40;99.90;;;;;;6092959;23;20412;-56
2023/01/03 10:57:59;;;;;;;3.80;2.40;;;8.30;99.90;;;;;;6092790;23;20408;-55
2023/01/03 11:00:30;;;;;;;5.77;3.13;;;8.00;99.90;;;;;;6092234;23;20432;-57
2023/01/03 11:03:14;;;;;;;5.13;3.50;;;8.00;99.90;;;;;;6093433;23;20459;-57
2023/01/03 11:05:43;;;;;;;10.63;3.90;;;8.00;99.90;;;;;;6092675;23;20416;-55
2023/01/03 11:08:22;;;;;;;8.63;2.90;;;8.10;99.90;;;;;;6092533;23;20409;-57
2023/01/03 11:10:57;;;;;;;3.70;3.10;;;8.00;99.90;;;;;;6092244;23;20447;-57
2023/01/03 11:13:37;;;;;;;2.90;2.07;;;8.00;99.90;;;;;;6092626;23;20389;-50
2023/01/03 11:16:13;;;;;;;5.03;3.30;;;8.10;99.90;;;;;;6092520;23;20436;-56
2023/01/03 11:18:42;;;;;;;9.50;3.70;;;8.20;99.90;;;;;;6093252;23;20396;-63
2023/01/03 11:21:13;;;;;;;4.43;3.50;;;8.20;99.90;;;;;;6092825;23;20460;-61
2023/01/03 11:23:57;;;;;;;4.23;3.40;;;8.30;99.90;;;;;;6092843;23;20519;-57
2023/01/03 11:26:44;;;;;;;4.50;3.10;;;8.30;99.90;;;;;;6093033;23;20491;-60
2023/01/03 11:29:48;;;;;;;4.77;3.30;;;8.30;99.90;;;;;;6091085;23;20444;-60
2023/01/03 11:32:27;;;;;;;4.73;3.63;;;8.40;99.90;;;;;;6093508;23;20404;-57
2023/01/03 11:35:14;;;;;;;4.90;3.23;;;8.50;99.90;;;;;;6093972;23;20372;-57
2023/01/03 11:37:50;;;;;;;4.30;2.40;;;8.40;99.90;;;;;;6092839;23;20388;-55
2023/01/03 11:40:28;;;;;;;10.10;3.37;;;8.40;99.90;;;;;;6092657;23;20402;-54
2023/01/03 11:43:10;;;;;;;9.97;2.83;;;8.40;99.90;;;;;;6091718;23;20523;-53
2023/01/03 11:45:45;;;;;;;11.03;3.10;;;8.30;99.90;;;;;;6091972;23;20445;-53
2023/01/03 11:48:33;;;;;;;7.07;3.30;;;8.20;99.90;;;;;;6092299;23;20384;-57
2023/01/03 11:51:11;;;;;;;4.23;3.07;;;8.20;99.90;;;;;;6092039;23;20433;-56
2023/01/03 11:53:45;;;;;;;4.23;2.90;;;8.20;99.90;;;;;;6091046;23;20368;-58
2023/01/03 11:56:26;;;;;;;8.77;2.97;;;8.10;99.90;;;;;;6090938;23;20440;-58
2023/01/03 11:59:35;;;;;;;7.13;3.20;;;8.10;99.90;;;;;;6091349;23;20417;-53
2023/01/03 12:02:28;;;;;;;17.90;3.90;;;8.10;99.90;;;;;;6077069;23;20424;-58
2023/01/03 12:05:07;;;;;;;5.60;3.00;;;8.10;99.90;;;;;;6065814;23;20463;-58
2023/01/03 12:07:48;;;;;;;5.37;2.73;;;8.10;99.90;;;;;;6092665;23;20424;-58
2023/01/03 12:10:21;;;;;;;6.43;3.63;;;8.00;99.90;;;;;;6092755;23;20373;-59
2023/01/03 12:13:05;;;;;;;6.50;3.70;;;8.00;99.90;;;;;;6091278;23;20404;-57
2023/01/03 12:15:44;;;;;;;4.27;3.00;;;8.10;99.90;;;;;;6083838;23;20392;-58
2023/01/03 12:18:20;;;;;;;6.30;3.13;;;8.20;99.90;;;;;;6094094;23;20384;-56
2023/01/03 12:20:54;;;;;;;6.57;3.83;;;8.20;99.90;;;;;;6093885;23;20392;-58
2023/01/03 12:23:32;;;;;;;3.83;3.03;;;8.20;99.90;;;;;;6093593;23;20480;-58
2023/01/03 12:26:02;;;;;;;7.00;3.90;;;8.10;99.90;;;;;;6093544;23;20396;-59
2023/01/03 12:28:36;;;;;;;16.73;5.57;;;8.20;99.90;;;;;;6093744;23;20400;-58
2023/01/03 12:31:09;;;;;;;10.83;4.77;;;8.30;99.90;;;;;;6092701;23;20458;-57
2023/01/03 12:33:41;;;;;;;6.60;3.40;;;8.30;99.90;;;;;;6093338;23;20393;-59
2023/01/03 12:36:24;;;;;;;4.43;3.00;;;8.30;99.90;;;;;;6093578;23;20404;-56
2023/01/03 12:38:58;;;;;;;11.33;5.50;;;8.30;99.90;;;;;;6093023;23;20392;-56
2023/01/03 12:41:33;;;;;;;8.43;3.13;;;8.20;99.90;;;;;;6093440;23;20399;-59
2023/01/03 12:44:07;;;;;;;9.43;2.90;;;8.20;99.90;;;;;;6093966;23;20454;-52
2023/01/03 12:46:37;;;;;;;6.10;3.70;;;8.20;99.90;;;;;;6092961;23;20392;-60
2023/01/03 12:49:10;;;;;;;3.73;2.63;;;8.30;99.90;;;;;;6094459;23;20389;-57
2023/01/03 12:51:39;;;;;;;8.07;4.20;;;8.40;99.90;;;;;;6093897;23;20395;-57
2023/01/03 12:54:18;;;;;;;6.03;2.80;;;8.50;99.90;;;;;;6093673;23;20393;-56
2023/01/03 12:56:58;;;;;;;3.80;2.93;;;8.50;99.90;;;;;;6092676;23;20423;-61
2023/01/03 12:59:46;;;;;;;3.70;2.40;;;8.50;99.90;;;;;;6080238;23;20388;-59
2023/01/03 13:02:21;;;;;;;7.77;3.40;;;8.50;99.90;;;;;;6094093;23;20452;-58
2023/01/03 13:04:52;;;;;;;10.07;2.70;;;8.50;99.90;;;;;;6094743;23;20428;-52
2023/01/03 13:07:23;;;;;;;3.17;2.53;;;8.40;99.90;;;;;;6094679;23;20423;-55
2023/01/03 13:09:55;;;;;;;5.03;3.07;;;8.40;99.90;;;;;;6095499;23;20380;-58
2023/01/03 13:12:27;;;;;;;8.80;3.80;;;8.40;99.90;;;;;;6094808;23;20432;-58
2023/01/03 13:15:04;;;;;;;3.93;2.13;;;8.30;99.90;;;;;;6094971;23;20393;-60
2023/01/03 13:17:42;;;;;;;6.70;2.53;;;8.40;99.90;;;;;;6095122;23;20442;-61
2023/01/03 13:20:27;;;;;;;4.60;2.70;;;8.40;99.90;;;;;;6094924;23;20393;-59
2023/01/03 13:22:55;;;;;;;3.30;2.43;;;8.30;99.90;;;;;;6094394;23;20443;-55
2023/01/03 13:25:34;;;;;;;2.83;2.00;;;8.20;99.90;;;;;;6094205;23;20459;-56
2023/01/03 13:28:05;;;;;;;6.67;2.70;;;8.20;99.90;;;;;;6093781;23;20420;-58
2023/01/03 13:30:37;;;;;;;6.83;2.80;;;8.10;99.90;;;;;;6093241;23;20432;-54
2023/01/03 13:33:21;;;;;;;3.87;2.47;;;8.00;99.90;;;;;;6092421;23;20468;-57
2023/01/03 13:36:02;;;;;;;5.00;3.90;;;7.90;99.90;;;;;;6093989;23;20384;-58
2023/01/03 13:38:31;;;;;;;5.57;2.80;;;8.00;99.90;;;;;;6091933;23;21045;-58
2023/01/03 13:41:00;;;;;;;4.50;2.20;;;7.90;99.90;;;;;;6092765;23;20416;-57
2023/01/03 13:43:33;;;;;;;4.00;2.40;;;7.90;99.90;;;;;;6093785;23;20516;-55
2023/01/03 13:46:06;;;;;;;4.30;2.30;;;7.90;99.90;;;;;;6094419;23;20401;-55
2023/01/03 13:48:39;;;;;;;8.33;3.20;;;7.90;99.90;;;;;;6093728;23;20436;-58
2023/01/03 13:51:35;;;;;;;5.57;3.30;;;7.90;99.90;;;;;;6092712;23;20459;-59
2023/01/03 13:54:22;;;;;;;6.50;3.00;;;7.90;99.90;;;;;;6092774;23;20420;-60
2023/01/03 13:57:02;;;;;;;5.83;2.90;;;7.90;99.90;;;;;;6092696;23;20408;-58
2023/01/03 13:59:35;;;;;;;6.67;3.70;;;7.90;99.90;;;;;;6092478;23;20435;-58
2023/01/03 14:02:37;;;;;;;11.63;3.43;;;7.90;99.90;;;;;;6092295;23;20388;-58
2023/01/03 14:05:27;;;;;;;5.37;3.33;;;7.80;99.90;;;;;;6092390;23;20444;-58
2023/01/03 14:08:28;;;;;;;5.33;3.47;;;7.80;99.90;;;;;;6086736;23;20484;-59
2023/01/03 14:11:25;;;;;;;3.57;2.20;;;7.80;99.90;;;;;;6092725;23;20463;-62
2023/01/03 14:13:55;;;;;;;4.83;2.77;;;7.80;99.90;;;;;;6086896;23;20484;-55
2023/01/03 14:16:24;;;;;;;5.63;2.60;;;7.80;99.90;;;;;;6089222;23;20820;-56
2023/01/03 14:19:04;;;;;;;5.40;2.60;;;7.80;99.90;;;;;;6090390;23;20458;-55
2023/01/03 14:21:41;;;;;;;3.67;2.87;;;7.80;99.90;;;;;;6093154;23;20397;-58
2023/01/03 14:24:16;;;;;;;4.90;2.77;;;7.70;99.90;;;;;;6088774;23;20504;-58
2023/01/03 14:26:43;;;;;;;30.23;8.73;;;7.70;99.90;;;;;;6090675;23;20395;-57
2023/01/03 14:29:17;;;;;;;56.53;19.23;;;8.20;99.90;;;;;;6091807;23;20439;-61
2023/01/03 14:31:46;;;;;;;20.67;12.07;;;8.60;99.90;;;;;;6081673;23;20392;-60
2023/01/03 14:34:31;;;;;;;44.60;11.90;;;8.80;99.90;;;;;;6091912;23;20424;-59